sensor_id;sensor_type;location;lat;lon;timestamp;pressure;altitude;pressure_sealevel;temperature;humidity
10464;BME280;5279;42.048;24.638;2023-01-27T00:00:47;96731.59;;;2.67;100.00
10464;BME280;5279;42.048;24.638;2023-01-27T00:03:14;96733.47;;;2.65;100.00
10464;BME280;5279;42.048;24.638;2023-01-27T00:05:42;96743.47;;;2.71;100.00
10464;BME280;5279;42.048;24.638;2023-01-27T00:08:09;96754.66;;;2.73;100.00
10464;BME280;5279;42.048;24.638;2023-01-27T00:10:38;96743.13;;;2.75;100.00
10464;BME280;5279;42.048;24.638;2023-01-27T00:13:05;96734.91;;;2.80;100.00
10464;BME280;5279;42.048;24.638;2023-01-27T00:15:49;96740.88;;;2.82;100.00
10464;BME280;5279;42.048;24.638;2023-01-27T00:18:16;96735.41;;;2.85;100.00
10464;BME280;5279;42.048;24.638;2023-01-27T00:20:43;96723.25;;;2.84;100.00
10464;BME280;5279;42.048;24.638;2023-01-27T00:23:28;96718.03;;;2.84;100.00
10464;BME280;5279;42.048;24.638;2023-01-27T00:26:15;96721.34;;;2.86;100.00
10464;BME280;5279;42.048;24.638;2023-01-27T00:28:44;96720.41;;;2.76;100.00
10464;BME280;5279;42.048;24.638;2023-01-27T00:31:13;96718.03;;;2.73;100.00
10464;BME280;5279;42.048;24.638;2023-01-27T00:33:58;96721.38;;;2.64;100.00
10464;BME280;5279;42.048;24.638;2023-01-27T00:36:26;96723.47;;;2.59;100.00
10464;BME280;5279;42.048;24.638;2023-01-27T00:38:53;96720.16;;;2.46;100.00
10464;BME280;5279;42.048;24.638;2023-01-27T00:41:21;96719.78;;;2.50;100.00
10464;BME280;5279;42.048;24.638;2023-01-27T00:43:51;96705.16;;;2.48;100.00
10464;BME280;5279;42.048;24.638;2023-01-27T00:46:20;96704.09;;;2.50;100.00
10464;BME280;5279;42.048;24.638;2023-01-27T00:48:47;96693.31;;;2.55;100.00
10464;BME280;5279;42.048;24.638;2023-01-27T00:51:14;96699.94;;;2.59;100.00
10464;BME280;5279;42.048;24.638;2023-01-27T00:53:41;96699.69;;;2.62;100.00
10464;BME280;5279;42.048;24.638;2023-01-27T00:56:08;96700.44;;;2.64;100.00
10464;BME280;5279;42.048;24.638;2023-01-27T00:58:37;96686.28;;;2.66;100.00
10464;BME280;5279;42.048;24.638;2023-01-27T01:01:06;96673.81;;;2.70;100.00
10464;BME280;5279;42.048;24.638;2023-01-27T01:03:35;96677.00;;;2.62;100.00
10464;BME280;5279;42.048;24.638;2023-01-27T01:06:04;96671.44;;;2.67;100.00
10464;BME280;5279;42.048;24.638;2023-01-27T01:08:32;96656.69;;;2.66;100.00
10464;BME280;5279;42.048;24.638;2023-01-27T01:10:59;96652.16;;;2.57;100.00
10464;BME280;5279;42.048;24.638;2023-01-27T01:13:27;96662.84;;;2.20;100.00
10464;BME280;5279;42.048;24.638;2023-01-27T01:15:55;96659.53;;;2.30;100.00
10464;BME280;5279;42.048;24.638;2023-01-27T01:18:23;96671.19;;;2.37;100.00
10464;BME280;5279;42.048;24.638;2023-01-27T01:20:50;96674.97;;;2.44;100.00
10464;BME280;5279;42.048;24.638;2023-01-27T01:23:17;96679.97;;;2.47;100.00
10464;BME280;5279;42.048;24.638;2023-01-27T01:25:51;96675.72;;;2.46;100.00
10464;BME280;5279;42.048;24.638;2023-01-27T01:28:18;96678.09;;;2.49;100.00
10464;BME280;5279;42.048;24.638;2023-01-27T01:30:45;96670.00;;;2.52;100.00
10464;BME280;5279;42.048;24.638;2023-01-27T01:33:13;96665.94;;;2.59;100.00
10464;BME280;5279;42.048;24.638;2023-01-27T01:35:40;96675.94;;;2.54;100.00
10464;BME280;5279;42.048;24.638;2023-01-27T01:38:07;96680.00;;;2.58;100.00
10464;BME280;5279;42.048;24.638;2023-01-27T01:40:39;96669.63;;;2.56;100.00
10464;BME280;5279;42.048;24.638;2023-01-27T01:43:11;96672.00;;;2.59;100.00
10464;BME280;5279;42.048;24.638;2023-01-27T01:45:51;96674.53;;;2.61;100.00
10464;BME280;5279;42.048;24.638;2023-01-27T01:48:31;96667.63;;;2.60;100.00
10464;BME280;5279;42.048;24.638;2023-01-27T01:51:02;96660.47;;;2.62;100.00
10464;BME280;5279;42.048;24.638;2023-01-27T01:53:36;96652.28;;;2.66;100.00
10464;BME280;5279;42.048;24.638;2023-01-27T01:56:07;96661.44;;;2.72;100.00
10464;BME280;5279;42.048;24.638;2023-01-27T01:58:36;96668.09;;;2.76;100.00
10464;BME280;5279;42.048;24.638;2023-01-27T02:01:05;96654.44;;;2.61;100.00
10464;BME280;5279;42.048;24.638;2023-01-27T02:03:34;96659.75;;;2.71;100.00
10464;BME280;5279;42.048;24.638;2023-01-27T02:06:05;96652.66;;;2.73;100.00
10464;BME280;5279;42.048;24.638;2023-01-27T02:08:34;96647.19;;;2.76;100.00
10464;BME280;5279;42.048;24.638;2023-01-27T02:11:04;96638.38;;;2.77;100.00
10464;BME280;5279;42.048;24.638;2023-01-27T02:13:31;96635.41;;;2.82;100.00
10464;BME280;5279;42.048;24.638;2023-01-27T02:15:58;96631.84;;;2.83;100.00
10464;BME280;5279;42.048;24.638;2023-01-27T02:18:25;96632.09;;;2.80;100.00
10464;BME280;5279;42.048;24.638;2023-01-27T02:20:54;96610.31;;;2.79;100.00
10464;BME280;5279;42.048;24.638;2023-01-27T02:23:35;96601.50;;;2.80;100.00
10464;BME280;5279;42.048;24.638;2023-01-27T02:26:08;96596.28;;;2.80;100.00
10464;BME280;5279;42.048;24.638;2023-01-27T02:28:36;96602.94;;;2.84;100.00
10464;BME280;5279;42.048;24.638;2023-01-27T02:31:03;96603.63;;;2.86;100.00
10464;BME280;5279;42.048;24.638;2023-01-27T02:33:30;96601.25;;;2.83;100.00
10464;BME280;5279;42.048;24.638;2023-01-27T02:36:00;96603.06;;;2.71;100.00
10464;BME280;5279;42.048;24.638;2023-01-27T02:38:32;96596.19;;;2.70;100.00
10464;BME280;5279;42.048;24.638;2023-01-27T02:41:03;96595.13;;;2.73;100.00
10464;BME280;5279;42.048;24.638;2023-01-27T02:43:33;96596.75;;;2.74;100.00
10464;BME280;5279;42.048;24.638;2023-01-27T02:46:00;96576.31;;;2.68;100.00
10464;BME280;5279;42.048;24.638;2023-01-27T02:48:26;96578.47;;;2.63;100.00
10464;BME280;5279;42.048;24.638;2023-01-27T02:50:53;96595.84;;;2.53;100.00
10464;BME280;5279;42.048;24.638;2023-01-27T02:53:20;96594.06;;;2.20;100.00
10464;BME280;5279;42.048;24.638;2023-01-27T02:55:47;96591.81;;;2.15;100.00
10464;BME280;5279;42.048;24.638;2023-01-27T02:58:14;96575.63;;;2.10;100.00
10464;BME280;5279;42.048;24.638;2023-01-27T03:00:42;96579.69;;;2.03;100.00
10464;BME280;5279;42.048;24.638;2023-01-27T03:03:09;96587.41;;;2.05;100.00
10464;BME280;5279;42.048;24.638;2023-01-27T03:05:36;96572.66;;;2.04;100.00
10464;BME280;5279;42.048;24.638;2023-01-27T03:08:03;96573.25;;;1.96;100.00
10464;BME280;5279;42.048;24.638;2023-01-27T03:10:30;96571.59;;;1.95;100.00
10464;BME280;5279;42.048;24.638;2023-01-27T03:12:57;96578.63;;;2.06;100.00
10464;BME280;5279;42.048;24.638;2023-01-27T03:15:24;96573.75;;;2.12;100.00
10464;BME280;5279;42.048;24.638;2023-01-27T03:18:10;96567.56;;;2.02;100.00
10464;BME280;5279;42.048;24.638;2023-01-27T03:20:43;96575.03;;;2.07;100.00
10464;BME280;5279;42.048;24.638;2023-01-27T03:23:11;96578.03;;;2.02;100.00
10464;BME280;5279;42.048;24.638;2023-01-27T03:25:42;96586.56;;;2.04;100.00
10464;BME280;5279;42.048;24.638;2023-01-27T03:28:09;96575.63;;;2.10;100.00
10464;BME280;5279;42.048;24.638;2023-01-27T03:30:36;96579.00;;;2.12;100.00
10464;BME280;5279;42.048;24.638;2023-01-27T03:33:03;96575.41;;;2.13;100.00
10464;BME280;5279;42.048;24.638;2023-01-27T03:35:33;96580.53;;;2.15;100.00
10464;BME280;5279;42.048;24.638;2023-01-27T03:38:05;96586.22;;;2.09;100.00
10464;BME280;5279;42.048;24.638;2023-01-27T03:40:50;96574.00;;;2.09;100.00
10464;BME280;5279;42.048;24.638;2023-01-27T03:43:34;96581.34;;;2.27;100.00
10464;BME280;5279;42.048;24.638;2023-01-27T03:46:18;96576.25;;;2.36;100.00
10464;BME280;5279;42.048;24.638;2023-01-27T03:48:50;96574.94;;;2.42;100.00
10464;BME280;5279;42.048;24.638;2023-01-27T03:51:20;96582.41;;;2.46;100.00
10464;BME280;5279;42.048;24.638;2023-01-27T03:53:47;96586.44;;;2.50;100.00
10464;BME280;5279;42.048;24.638;2023-01-27T03:56:15;96584.44;;;2.54;100.00
10464;BME280;5279;42.048;24.638;2023-01-27T03:58:42;96580.88;;;2.55;100.00
10464;BME280;5279;42.048;24.638;2023-01-27T04:01:14;96577.53;;;2.53;100.00
10464;BME280;5279;42.048;24.638;2023-01-27T04:03:41;96575.66;;;2.55;100.00
10464;BME280;5279;42.048;24.638;2023-01-27T04:06:29;96572.53;;;2.50;100.00
10464;BME280;5279;42.048;24.638;2023-01-27T04:09:18;96576.00;;;2.50;100.00
10464;BME280;5279;42.048;24.638;2023-01-27T04:11:46;96575.41;;;2.58;100.00
10464;BME280;5279;42.048;24.638;2023-01-27T04:14:28;96563.28;;;2.57;100.00
10464;BME280;5279;42.048;24.638;2023-01-27T04:16:56;96559.97;;;2.55;100.00
10464;BME280;5279;42.048;24.638;2023-01-27T04:19:24;96556.63;;;2.53;100.00
10464;BME280;5279;42.048;24.638;2023-01-27T04:21:53;96556.84;;;2.50;100.00
10464;BME280;5279;42.048;24.638;2023-01-27T04:24:20;96554.72;;;2.55;100.00
10464;BME280;5279;42.048;24.638;2023-01-27T04:26:53;96554.72;;;2.55;100.00
10464;BME280;5279;42.048;24.638;2023-01-27T04:29:21;96545.47;;;2.40;100.00
10464;BME280;5279;42.048;24.638;2023-01-27T04:31:48;96543.09;;;2.48;100.00
10464;BME280;5279;42.048;24.638;2023-01-27T04:34:15;96543.53;;;2.53;100.00
10464;BME280;5279;42.048;24.638;2023-01-27T04:36:42;96548.06;;;2.51;100.00
10464;BME280;5279;42.048;24.638;2023-01-27T04:39:12;96553.06;;;2.54;100.00
10464;BME280;5279;42.048;24.638;2023-01-27T04:41:39;96537.13;;;2.57;100.00
10464;BME280;5279;42.048;24.638;2023-01-27T04:44:06;96533.56;;;2.58;100.00
10464;BME280;5279;42.048;24.638;2023-01-27T04:46:34;96524.75;;;2.59;100.00
10464;BME280;5279;42.048;24.638;2023-01-27T04:49:02;96549.84;;;2.61;100.00
10464;BME280;5279;42.048;24.638;2023-01-27T04:51:29;96553.50;;;2.59;100.00
10464;BME280;5279;42.048;24.638;2023-01-27T04:53:56;96570.88;;;2.60;100.00
10464;BME280;5279;42.048;24.638;2023-01-27T04:56:27;96568.75;;;2.54;100.00
10464;BME280;5279;42.048;24.638;2023-01-27T04:58:56;96566.41;;;2.40;100.00
10464;BME280;5279;42.048;24.638;2023-01-27T05:01:23;96564.81;;;2.37;100.00
10464;BME280;5279;42.048;24.638;2023-01-27T05:03:50;96558.06;;;2.35;100.00
10464;BME280;5279;42.048;24.638;2023-01-27T05:06:17;96547.38;;;2.27;100.00
10464;BME280;5279;42.048;24.638;2023-01-27T05:08:44;96561.16;;;2.29;100.00
10464;BME280;5279;42.048;24.638;2023-01-27T05:11:11;96555.22;;;2.04;100.00
10464;BME280;5279;42.048;24.638;2023-01-27T05:13:39;96561.41;;;2.14;100.00
10464;BME280;5279;42.048;24.638;2023-01-27T05:16:09;96549.63;;;2.20;100.00
10464;BME280;5279;42.048;24.638;2023-01-27T05:18:37;96567.59;;;2.25;100.00
10464;BME280;5279;42.048;24.638;2023-01-27T05:21:05;96572.56;;;2.28;100.00
10464;BME280;5279;42.048;24.638;2023-01-27T05:23:32;96576.72;;;2.30;100.00
10464;BME280;5279;42.048;24.638;2023-01-27T05:26:06;96575.19;;;2.28;100.00
10464;BME280;5279;42.048;24.638;2023-01-27T05:28:34;96572.91;;;2.34;100.00
10464;BME280;5279;42.048;24.638;2023-01-27T05:31:05;96569.25;;;2.37;100.00
10464;BME280;5279;42.048;24.638;2023-01-27T05:33:32;96576.63;;;2.43;100.00
10464;BME280;5279;42.048;24.638;2023-01-27T05:36:00;96579.44;;;2.17;100.00
10464;BME280;5279;42.048;24.638;2023-01-27T05:38:28;96582.28;;;2.26;100.00
10464;BME280;5279;42.048;24.638;2023-01-27T05:40:59;96592.78;;;2.37;100.00
10464;BME280;5279;42.048;24.638;2023-01-27T05:43:27;96574.69;;;2.45;100.00
10464;BME280;5279;42.048;24.638;2023-01-27T05:46:14;96581.13;;;2.52;100.00
10464;BME280;5279;42.048;24.638;2023-01-27T05:48:43;96578.13;;;2.34;100.00
10464;BME280;5279;42.048;24.638;2023-01-27T05:51:11;96583.38;;;2.45;100.00
10464;BME280;5279;42.048;24.638;2023-01-27T05:53:38;96579.91;;;2.56;100.00
10464;BME280;5279;42.048;24.638;2023-01-27T05:56:06;96578.63;;;2.61;100.00
10464;BME280;5279;42.048;24.638;2023-01-27T05:58:35;96583.22;;;2.69;100.00
10464;BME280;5279;42.048;24.638;2023-01-27T06:01:06;96580.97;;;2.75;100.00
10464;BME280;5279;42.048;24.638;2023-01-27T06:03:35;96577.25;;;2.78;100.00
10464;BME280;5279;42.048;24.638;2023-01-27T06:06:02;96575.84;;;2.85;100.00
10464;BME280;5279;42.048;24.638;2023-01-27T06:08:30;96569.63;;;2.86;100.00
10464;BME280;5279;42.048;24.638;2023-01-27T06:10:58;96575.44;;;2.90;100.00
10464;BME280;5279;42.048;24.638;2023-01-27T06:13:25;96582.94;;;2.94;100.00
10464;BME280;5279;42.048;24.638;2023-01-27T06:15:52;96577.22;;;2.89;100.00
10464;BME280;5279;42.048;24.638;2023-01-27T06:18:20;96568.44;;;2.90;100.00
10464;BME280;5279;42.048;24.638;2023-01-27T06:20:48;96576.38;;;3.00;100.00
10464;BME280;5279;42.048;24.638;2023-01-27T06:23:16;96579.34;;;2.95;100.00
10464;BME280;5279;42.048;24.638;2023-01-27T06:25:45;96582.22;;;3.03;100.00
10464;BME280;5279;42.048;24.638;2023-01-27T06:28:14;96575.50;;;3.10;100.00
10464;BME280;5279;42.048;24.638;2023-01-27T06:30:41;96587.03;;;3.19;100.00
10464;BME280;5279;42.048;24.638;2023-01-27T06:33:09;96577.97;;;3.23;100.00
10464;BME280;5279;42.048;24.638;2023-01-27T06:35:37;96588.19;;;3.26;100.00
10464;BME280;5279;42.048;24.638;2023-01-27T06:38:07;96586.84;;;3.31;100.00
10464;BME280;5279;42.048;24.638;2023-01-27T06:40:34;96589.94;;;3.37;100.00
10464;BME280;5279;42.048;24.638;2023-01-27T06:43:01;96583.47;;;3.41;100.00
10464;BME280;5279;42.048;24.638;2023-01-27T06:45:28;96593.00;;;3.42;100.00
10464;BME280;5279;42.048;24.638;2023-01-27T06:47:56;96594.53;;;3.44;100.00
10464;BME280;5279;42.048;24.638;2023-01-27T06:50:24;96598.00;;;3.45;100.00
10464;BME280;5279;42.048;24.638;2023-01-27T06:52:51;96593.34;;;3.48;100.00
10464;BME280;5279;42.048;24.638;2023-01-27T06:55:19;96604.59;;;3.60;100.00
10464;BME280;5279;42.048;24.638;2023-01-27T06:57:48;96585.88;;;3.64;100.00
10464;BME280;5279;42.048;24.638;2023-01-27T07:00:16;96592.16;;;3.73;100.00
10464;BME280;5279;42.048;24.638;2023-01-27T07:02:43;96579.22;;;3.81;100.00
10464;BME280;5279;42.048;24.638;2023-01-27T07:05:10;96588.03;;;3.80;100.00
10464;BME280;5279;42.048;24.638;2023-01-27T07:07:38;96573.59;;;3.65;100.00
10464;BME280;5279;42.048;24.638;2023-01-27T07:10:06;96577.56;;;3.80;100.00
10464;BME280;5279;42.048;24.638;2023-01-27T07:12:34;96574.06;;;3.91;100.00
10464;BME280;5279;42.048;24.638;2023-01-27T07:15:03;96588.69;;;3.93;100.00
10464;BME280;5279;42.048;24.638;2023-01-27T07:17:30;96591.78;;;3.98;100.00
10464;BME280;5279;42.048;24.638;2023-01-27T07:19:57;96591.50;;;4.01;100.00
10464;BME280;5279;42.048;24.638;2023-01-27T07:22:24;96591.00;;;4.07;100.00
10464;BME280;5279;42.048;24.638;2023-01-27T07:24:51;96604.78;;;4.09;100.00
10464;BME280;5279;42.048;24.638;2023-01-27T07:27:18;96602.59;;;4.14;100.00
10464;BME280;5279;42.048;24.638;2023-01-27T07:29:47;96608.75;;;4.24;100.00
10464;BME280;5279;42.048;24.638;2023-01-27T07:32:13;96610.97;;;4.29;100.00
10464;BME280;5279;42.048;24.638;2023-01-27T07:34:40;96604.19;;;4.26;100.00
10464;BME280;5279;42.048;24.638;2023-01-27T07:37:07;96596.38;;;4.36;100.00
10464;BME280;5279;42.048;24.638;2023-01-27T07:39:35;96601.94;;;4.43;100.00
10464;BME280;5279;42.048;24.638;2023-01-27T07:42:02;96597.56;;;4.53;100.00
10464;BME280;5279;42.048;24.638;2023-01-27T07:44:29;96599.94;;;4.56;100.00
10464;BME280;5279;42.048;24.638;2023-01-27T07:46:58;96598.16;;;4.66;100.00
10464;BME280;5279;42.048;24.638;2023-01-27T07:49:25;96588.53;;;4.76;100.00
10464;BME280;5279;42.048;24.638;2023-01-27T07:51:52;96603.03;;;4.80;100.00
10464;BME280;5279;42.048;24.638;2023-01-27T07:54:19;96599.84;;;4.76;100.00
10464;BME280;5279;42.048;24.638;2023-01-27T07:56:46;96605.94;;;4.77;100.00
10464;BME280;5279;42.048;24.638;2023-01-27T07:59:13;96601.06;;;4.72;100.00
10464;BME280;5279;42.048;24.638;2023-01-27T08:01:39;96594.63;;;4.86;100.00
10464;BME280;5279;42.048;24.638;2023-01-27T08:04:09;96593.56;;;4.98;100.00
10464;BME280;5279;42.048;24.638;2023-01-27T08:06:37;96587.50;;;5.07;100.00
10464;BME280;5279;42.048;24.638;2023-01-27T08:09:03;96596.91;;;5.19;100.00
10464;BME280;5279;42.048;24.638;2023-01-27T08:11:30;96589.03;;;5.38;100.00
10464;BME280;5279;42.048;24.638;2023-01-27T08:13:57;96582.81;;;5.39;100.00
10464;BME280;5279;42.048;24.638;2023-01-27T08:16:24;96568.88;;;5.68;100.00
10464;BME280;5279;42.048;24.638;2023-01-27T08:18:51;96572.00;;;5.81;100.00
10464;BME280;5279;42.048;24.638;2023-01-27T08:21:20;96565.06;;;6.09;100.00
10464;BME280;5279;42.048;24.638;2023-01-27T08:23:47;96563.16;;;6.47;100.00
10464;BME280;5279;42.048;24.638;2023-01-27T08:26:14;96569.78;;;6.79;100.00
10464;BME280;5279;42.048;24.638;2023-01-27T08:28:40;96562.59;;;6.81;100.00
10464;BME280;5279;42.048;24.638;2023-01-27T08:31:10;96565.84;;;6.92;100.00
10464;BME280;5279;42.048;24.638;2023-01-27T08:33:37;96564.19;;;6.64;100.00
10464;BME280;5279;42.048;24.638;2023-01-27T08:36:07;96566.97;;;6.63;100.00
10464;BME280;5279;42.048;24.638;2023-01-27T08:38:36;96573.31;;;6.70;100.00
10464;BME280;5279;42.048;24.638;2023-01-27T08:41:05;96572.34;;;6.71;100.00
10464;BME280;5279;42.048;24.638;2023-01-27T08:43:32;96563.06;;;6.67;100.00
10464;BME280;5279;42.048;24.638;2023-01-27T08:45:59;96565.00;;;6.37;100.00
10464;BME280;5279;42.048;24.638;2023-01-27T08:48:27;96565.69;;;6.39;100.00
10464;BME280;5279;42.048;24.638;2023-01-27T08:50:55;96567.44;;;6.48;100.00
10464;BME280;5279;42.048;24.638;2023-01-27T08:53:22;96569.09;;;6.49;100.00
10464;BME280;5279;42.048;24.638;2023-01-27T08:55:51;96562.97;;;6.58;100.00
10464;BME280;5279;42.048;24.638;2023-01-27T08:58:21;96568.63;;;6.64;100.00
10464;BME280;5279;42.048;24.638;2023-01-27T09:00:48;96575.66;;;6.73;100.00
10464;BME280;5279;42.048;24.638;2023-01-27T09:03:15;96564.22;;;6.82;100.00
10464;BME280;5279;42.048;24.638;2023-01-27T09:05:41;96567.56;;;6.84;100.00
10464;BME280;5279;42.048;24.638;2023-01-27T09:08:08;96563.28;;;6.83;100.00
10464;BME280;5279;42.048;24.638;2023-01-27T09:10:36;96564.22;;;6.82;100.00
10464;BME280;5279;42.048;24.638;2023-01-27T09:13:06;96557.72;;;6.86;100.00
10464;BME280;5279;42.048;24.638;2023-01-27T09:15:33;96558.91;;;6.91;100.00
10464;BME280;5279;42.048;24.638;2023-01-27T09:18:00;96549.00;;;7.03;100.00
10464;BME280;5279;42.048;24.638;2023-01-27T09:20:27;96549.31;;;7.00;100.00
10464;BME280;5279;42.048;24.638;2023-01-27T09:22:54;96562.34;;;7.19;100.00
10464;BME280;5279;42.048;24.638;2023-01-27T09:25:21;96548.22;;;7.20;100.00
10464;BME280;5279;42.048;24.638;2023-01-27T09:27:52;96540.06;;;7.31;100.00
10464;BME280;5279;42.048;24.638;2023-01-27T09:30:21;96539.19;;;7.40;100.00
10464;BME280;5279;42.048;24.638;2023-01-27T09:32:48;96521.69;;;7.39;100.00
10464;BME280;5279;42.048;24.638;2023-01-27T09:35:15;96530.22;;;7.33;100.00
10464;BME280;5279;42.048;24.638;2023-01-27T09:37:45;96527.56;;;7.33;100.00
10464;BME280;5279;42.048;24.638;2023-01-27T09:40:20;96524.56;;;7.28;100.00
10464;BME280;5279;42.048;24.638;2023-01-27T09:43:09;96521.63;;;7.13;100.00
10464;BME280;5279;42.048;24.638;2023-01-27T09:46:01;96517.81;;;7.08;100.00
10464;BME280;5279;42.048;24.638;2023-01-27T09:48:51;96514.63;;;6.87;100.00
10464;BME280;5279;42.048;24.638;2023-01-27T09:51:42;96501.53;;;6.95;100.00
10464;BME280;5279;42.048;24.638;2023-01-27T09:54:21;96494.84;;;7.00;100.00
10464;BME280;5279;42.048;24.638;2023-01-27T09:56:59;96506.66;;;7.14;100.00
10464;BME280;5279;42.048;24.638;2023-01-27T09:59:47;96513.44;;;6.99;100.00
10464;BME280;5279;42.048;24.638;2023-01-27T10:02:31;96503.53;;;6.66;100.00
10464;BME280;5279;42.048;24.638;2023-01-27T10:05:21;96507.13;;;6.65;100.00
10464;BME280;5279;42.048;24.638;2023-01-27T10:08:19;96502.88;;;6.54;100.00
10464;BME280;5279;42.048;24.638;2023-01-27T10:11:00;96503.94;;;6.61;100.00
10464;BME280;5279;42.048;24.638;2023-01-27T10:13:35;96489.34;;;6.49;100.00
10464;BME280;5279;42.048;24.638;2023-01-27T10:16:19;96485.69;;;6.59;100.00
10464;BME280;5279;42.048;24.638;2023-01-27T10:19:13;96490.06;;;6.69;100.00
10464;BME280;5279;42.048;24.638;2023-01-27T10:21:51;96487.16;;;6.72;100.00
10464;BME280;5279;42.048;24.638;2023-01-27T10:24:29;96481.94;;;6.80;100.00
10464;BME280;5279;42.048;24.638;2023-01-27T10:27:03;96485.78;;;6.85;100.00
10464;BME280;5279;42.048;24.638;2023-01-27T10:29:37;96482.13;;;6.96;100.00
10464;BME280;5279;42.048;24.638;2023-01-27T10:32:10;96474.00;;;7.07;100.00
10464;BME280;5279;42.048;24.638;2023-01-27T10:34:47;96464.22;;;7.17;100.00
10464;BME280;5279;42.048;24.638;2023-01-27T10:37:22;96464.53;;;7.14;100.00
10464;BME280;5279;42.048;24.638;2023-01-27T10:39:58;96469.06;;;7.30;100.00
10464;BME280;5279;42.048;24.638;2023-01-27T10:42:30;96460.16;;;7.23;100.00
10464;BME280;5279;42.048;24.638;2023-01-27T10:45:25;96454.59;;;7.08;100.00
10464;BME280;5279;42.048;24.638;2023-01-27T10:48:08;96449.59;;;7.40;100.00
10464;BME280;5279;42.048;24.638;2023-01-27T10:50:41;96450.72;;;7.63;100.00
10464;BME280;5279;42.048;24.638;2023-01-27T10:53:11;96454.88;;;7.92;100.00
10464;BME280;5279;42.048;24.638;2023-01-27T10:55:42;96451.72;;;8.22;100.00
10464;BME280;5279;42.048;24.638;2023-01-27T10:58:17;96445.50;;;8.65;100.00
10464;BME280;5279;42.048;24.638;2023-01-27T11:00:48;96438.81;;;9.27;100.00
10464;BME280;5279;42.048;24.638;2023-01-27T11:03:21;96436.09;;;10.55;100.00
10464;BME280;5279;42.048;24.638;2023-01-27T11:05:51;96422.81;;;12.64;90.78
10464;BME280;5279;42.048;24.638;2023-01-27T11:08:23;96421.47;;;14.02;73.98
10464;BME280;5279;42.048;24.638;2023-01-27T11:10:53;96417.38;;;13.99;67.89
10464;BME280;5279;42.048;24.638;2023-01-27T11:13:34;96396.03;;;13.01;76.98
10464;BME280;5279;42.048;24.638;2023-01-27T11:16:03;96419.19;;;12.36;75.92
10464;BME280;5279;42.048;24.638;2023-01-27T11:18:33;96424.19;;;11.87;79.03
10464;BME280;5279;42.048;24.638;2023-01-27T11:21:04;96416.34;;;11.56;80.79
10464;BME280;5279;42.048;24.638;2023-01-27T11:23:36;96421.91;;;11.01;84.38
10464;BME280;5279;42.048;24.638;2023-01-27T11:26:11;96422.25;;;9.81;93.12
10464;BME280;5279;42.048;24.638;2023-01-27T11:28:47;96422.59;;;8.98;100.00
10464;BME280;5279;42.048;24.638;2023-01-27T11:31:21;96427.78;;;8.49;100.00
10464;BME280;5279;42.048;24.638;2023-01-27T11:33:55;96416.56;;;8.47;100.00
10464;BME280;5279;42.048;24.638;2023-01-27T11:36:29;96413.25;;;8.45;100.00
10464;BME280;5279;42.048;24.638;2023-01-27T11:38:56;96415.53;;;8.06;100.00
10464;BME280;5279;42.048;24.638;2023-01-27T11:41:26;96416.59;;;8.21;100.00
10464;BME280;5279;42.048;24.638;2023-01-27T11:43:53;96416.56;;;8.47;100.00
10464;BME280;5279;42.048;24.638;2023-01-27T11:46:22;96411.09;;;8.33;100.00
10464;BME280;5279;42.048;24.638;2023-01-27T11:48:53;96408.47;;;8.41;100.00
10464;BME280;5279;42.048;24.638;2023-01-27T11:51:22;96401.81;;;8.29;100.00
10464;BME280;5279;42.048;24.638;2023-01-27T11:53:56;96399.28;;;8.19;100.00
10464;BME280;5279;42.048;24.638;2023-01-27T11:56:29;96402.34;;;7.72;100.00
10464;BME280;5279;42.048;24.638;2023-01-27T11:59:01;96403.03;;;7.75;100.00
10464;BME280;5279;42.048;24.638;2023-01-27T12:01:37;96403.91;;;7.57;100.00
10464;BME280;5279;42.048;24.638;2023-01-27T12:04:13;96395.91;;;6.98;100.00
10464;BME280;5279;42.048;24.638;2023-01-27T12:06:46;96404.00;;;7.48;100.00
10464;BME280;5279;42.048;24.638;2023-01-27T12:09:32;96401.22;;;7.75;100.00
10464;BME280;5279;42.048;24.638;2023-01-27T12:12:09;96395.59;;;8.04;100.00
10464;BME280;5279;42.048;24.638;2023-01-27T12:14:36;96394.16;;;8.17;100.00
10464;BME280;5279;42.048;24.638;2023-01-27T12:17:04;96389.84;;;8.50;100.00
10464;BME280;5279;42.048;24.638;2023-01-27T12:19:35;96391.72;;;8.98;100.00
10464;BME280;5279;42.048;24.638;2023-01-27T12:22:09;96394.69;;;8.87;100.00
10464;BME280;5279;42.048;24.638;2023-01-27T12:24:45;96391.25;;;9.11;100.00
10464;BME280;5279;42.048;24.638;2023-01-27T12:27:19;96391.56;;;9.08;100.00
10464;BME280;5279;42.048;24.638;2023-01-27T12:29:51;96389.59;;;9.10;100.00
10464;BME280;5279;42.048;24.638;2023-01-27T12:32:21;96381.34;;;9.21;100.00
10464;BME280;5279;42.048;24.638;2023-01-27T12:34:51;96374.22;;;9.13;100.00
10464;BME280;5279;42.048;24.638;2023-01-27T12:37:23;96369.09;;;8.88;100.00
10464;BME280;5279;42.048;24.638;2023-01-27T12:39:55;96385.25;;;8.85;100.00
10464;BME280;5279;42.048;24.638;2023-01-27T12:42:32;96383.97;;;8.81;100.00
10464;BME280;5279;42.048;24.638;2023-01-27T12:44:59;96378.97;;;8.61;100.00
10464;BME280;5279;42.048;24.638;2023-01-27T12:47:27;96387.84;;;8.02;100.00
10464;BME280;5279;42.048;24.638;2023-01-27T12:50:19;96390.47;;;7.68;100.00
10464;BME280;5279;42.048;24.638;2023-01-27T12:52:51;96390.16;;;7.20;100.00
10464;BME280;5279;42.048;24.638;2023-01-27T12:55:30;96388.81;;;7.16;100.00
10464;BME280;5279;42.048;24.638;2023-01-27T12:57:58;96384.44;;;7.07;100.00
10464;BME280;5279;42.048;24.638;2023-01-27T13:00:26;96387.03;;;6.64;100.00
10464;BME280;5279;42.048;24.638;2023-01-27T13:03:02;96388.09;;;6.71;100.00
10464;BME280;5279;42.048;24.638;2023-01-27T13:05:35;96386.59;;;6.50;100.00
10464;BME280;5279;42.048;24.638;2023-01-27T13:08:03;96386.88;;;6.47;100.00
10464;BME280;5279;42.048;24.638;2023-01-27T13:10:32;96379.28;;;6.17;100.00
10464;BME280;5279;42.048;24.638;2023-01-27T13:13:00;96378.25;;;6.10;100.00
10464;BME280;5279;42.048;24.638;2023-01-27T13:15:28;96376.97;;;6.14;100.00
10464;BME280;5279;42.048;24.638;2023-01-27T13:17:56;96367.91;;;5.99;100.00